createdAt,value
2018-07-21T00:00:33.316Z,51.30
2018-07-21T00:03:01.662Z,51.80
2018-07-21T00:05:30.075Z,52.30
2018-07-21T00:07:58.393Z,52.20
2018-07-21T00:10:26.752Z,52.60
2018-07-21T00:12:55.073Z,53.40
2018-07-21T00:15:23.408Z,53.50
2018-07-21T00:17:51.789Z,53.70
2018-07-21T00:20:20.110Z,53.40
2018-07-21T00:22:48.417Z,54.20
2018-07-21T00:25:16.814Z,53.30
2018-07-21T00:27:45.140Z,53.20
2018-07-21T00:30:13.469Z,53.40
2018-07-21T00:32:41.854Z,53.70
2018-07-21T00:35:10.200Z,53.70
2018-07-21T00:37:38.556Z,53.90
2018-07-21T00:40:06.911Z,53.80
2018-07-21T00:42:35.260Z,53.80
2018-07-21T00:45:03.613Z,53.90
2018-07-21T00:47:32.029Z,54.10
2018-07-21T00:50:00.586Z,54.30
2018-07-21T00:52:28.905Z,54.60
2018-07-21T00:54:57.312Z,54.90
2018-07-21T00:57:25.632Z,55.00
2018-07-21T00:59:53.979Z,55.30
2018-07-21T01:02:22.344Z,55.40
2018-07-21T01:04:50.654Z,55.70
2018-07-21T01:07:19.000Z,56.00
2018-07-21T01:09:47.344Z,56.40
2018-07-21T01:12:15.698Z,56.80
2018-07-21T01:14:44.036Z,56.90
2018-07-21T01:17:12.491Z,57.00
2018-07-21T01:19:40.811Z,57.20
2018-07-21T01:22:09.151Z,57.20
2018-07-21T01:24:37.594Z,57.60
2018-07-21T01:27:05.987Z,57.80
2018-07-21T01:29:34.349Z,58.00
2018-07-21T01:32:02.721Z,58.40
2018-07-21T01:34:31.057Z,58.50
2018-07-21T01:36:59.440Z,58.70
2018-07-21T01:39:27.765Z,58.90
2018-07-21T01:41:56.206Z,59.10
2018-07-21T01:44:24.555Z,59.30
2018-07-21T01:46:52.861Z,59.20
2018-07-21T01:49:21.166Z,59.30
2018-07-21T01:51:49.487Z,59.60
2018-07-21T01:54:17.799Z,60.40
2018-07-21T01:56:46.145Z,59.60
2018-07-21T01:59:14.469Z,59.80
2018-07-21T02:01:42.818Z,59.80
2018-07-21T02:04:11.145Z,59.80
2018-07-21T02:06:39.499Z,59.80
2018-07-21T02:09:09.149Z,59.80
2018-07-21T02:11:37.476Z,59.90
2018-07-21T02:14:05.830Z,60.00
2018-07-21T02:16:34.184Z,59.90
2018-07-21T02:19:02.570Z,59.80
2018-07-21T02:21:30.904Z,59.70
2018-07-21T02:23:59.274Z,59.90
2018-07-21T02:26:27.624Z,59.90
2018-07-21T02:28:55.929Z,60.10
2018-07-21T02:31:24.247Z,60.50
2018-07-21T02:33:52.541Z,60.40
2018-07-21T02:36:21.033Z,60.40
2018-07-21T02:38:49.341Z,60.70
2018-07-21T02:41:17.884Z,60.70
2018-07-21T02:43:46.199Z,61.00
2018-07-21T02:46:14.567Z,61.50
2018-07-21T02:48:42.922Z,61.70
2018-07-21T02:51:11.275Z,61.80
2018-07-21T02:53:39.574Z,62.20
2018-07-21T02:56:07.891Z,63.10
2018-07-21T02:58:36.202Z,62.50
2018-07-21T03:01:04.545Z,62.40
2018-07-21T03:03:33.053Z,62.60
2018-07-21T03:06:01.398Z,62.50
2018-07-21T03:08:29.751Z,62.60
2018-07-21T03:10:58.078Z,62.50
2018-07-21T03:15:54.524Z,63.20
2018-07-21T03:18:22.896Z,63.60
2018-07-21T03:20:51.272Z,64.80
2018-07-21T03:23:19.694Z,64.30
2018-07-21T03:25:48.067Z,65.20
2018-07-21T03:28:16.411Z,65.70
2018-07-21T03:30:44.770Z,65.70
2018-07-21T03:33:13.200Z,65.70
2018-07-21T03:35:41.492Z,65.70
2018-07-21T03:38:09.867Z,65.90
2018-07-21T03:40:38.231Z,66.00
2018-07-21T03:43:06.621Z,66.10
2018-07-21T03:45:35.021Z,65.70
2018-07-21T03:48:03.365Z,65.40
2018-07-21T03:50:31.706Z,64.50
2018-07-21T03:53:00.063Z,64.80
2018-07-21T03:55:28.396Z,64.50
2018-07-21T03:57:56.727Z,64.50
2018-07-21T04:00:25.093Z,64.40
2018-07-21T04:02:53.443Z,64.30
2018-07-21T04:05:21.788Z,64.40
2018-07-21T04:07:50.133Z,64.60
2018-07-21T04:10:18.508Z,64.20
2018-07-21T04:12:46.834Z,64.50
2018-07-21T04:15:15.172Z,64.80
2018-07-21T04:17:43.577Z,64.80
2018-07-21T04:20:11.986Z,66.50
2018-07-21T04:22:40.391Z,69.30
2018-07-21T04:25:08.716Z,66.10
2018-07-21T04:27:37.093Z,67.00
2018-07-21T04:30:05.776Z,64.90
2018-07-21T04:32:34.138Z,66.50
2018-07-21T04:35:02.489Z,63.80
2018-07-21T04:37:30.858Z,66.50
2018-07-21T04:39:59.177Z,66.20
2018-07-21T04:42:27.555Z,65.90
2018-07-21T04:44:55.879Z,64.30
2018-07-21T04:47:24.222Z,63.60
2018-07-21T04:49:52.569Z,62.80
2018-07-21T04:52:20.898Z,62.20
2018-07-21T04:54:49.263Z,62.20
2018-07-21T04:57:17.588Z,61.70
2018-07-21T04:59:45.965Z,59.60
2018-07-21T05:02:14.288Z,59.60
2018-07-21T05:04:42.636Z,59.90
2018-07-21T05:07:10.935Z,60.00
2018-07-21T05:09:39.335Z,60.60
2018-07-21T05:12:07.383Z,60.80
2018-07-21T05:14:35.722Z,60.30
2018-07-21T05:17:04.099Z,60.50
2018-07-21T05:19:32.495Z,59.80
2018-07-21T05:22:00.848Z,60.30
2018-07-21T05:24:29.252Z,59.80
2018-07-21T05:26:57.725Z,60.30
2018-07-21T05:29:26.088Z,60.20
2018-07-21T05:31:54.456Z,59.50
2018-07-21T05:34:22.853Z,59.00
2018-07-21T05:36:51.234Z,58.40
2018-07-21T05:39:19.616Z,58.30
2018-07-21T05:41:47.942Z,58.00
2018-07-21T05:44:16.276Z,57.40
2018-07-21T05:46:44.598Z,57.50
2018-07-21T05:49:12.942Z,57.20
2018-07-21T05:51:41.308Z,57.50
2018-07-21T05:54:24.217Z,56.80
2018-07-21T05:56:52.546Z,56.60
2018-07-21T05:59:20.933Z,56.10
2018-07-21T06:01:49.279Z,56.20
2018-07-21T06:04:17.644Z,56.40
2018-07-21T06:06:46.004Z,55.40
2018-07-21T06:09:14.392Z,55.10
2018-07-21T06:11:42.753Z,54.80
2018-07-21T06:14:11.445Z,53.90
2018-07-21T06:16:39.827Z,53.20
2018-07-21T06:19:08.231Z,52.80
2018-07-21T06:21:36.628Z,52.90
2018-07-21T06:24:05.010Z,52.90
2018-07-21T06:26:33.383Z,52.70
2018-07-21T06:29:01.738Z,52.80
2018-07-21T06:31:30.070Z,52.20
2018-07-21T06:33:58.446Z,51.30
2018-07-21T06:36:26.815Z,50.70
2018-07-21T06:38:55.216Z,50.40
2018-07-21T06:41:23.643Z,51.20
2018-07-21T06:43:52.068Z,49.60
2018-07-21T06:46:20.408Z,48.80
2018-07-21T06:48:48.757Z,48.90
2018-07-21T06:51:17.098Z,49.50
2018-07-21T06:56:13.612Z,48.90
2018-07-21T06:58:41.992Z,48.80
2018-07-21T07:01:10.382Z,48.50
2018-07-21T07:03:38.780Z,48.30
2018-07-21T07:06:07.246Z,47.90
2018-07-21T07:08:35.617Z,48.00
2018-07-21T07:11:03.935Z,47.60
2018-07-21T07:13:32.292Z,46.90
2018-07-21T07:16:00.632Z,47.00
2018-07-21T07:18:28.999Z,46.50
2018-07-21T07:20:57.344Z,46.40
2018-07-21T07:23:25.853Z,46.40
2018-07-21T07:25:54.188Z,45.20
2018-07-21T07:28:22.515Z,45.20
2018-07-21T07:30:50.886Z,44.80
2018-07-21T07:33:19.184Z,44.90
2018-07-21T07:35:47.569Z,45.20
2018-07-21T07:38:15.902Z,44.40
2018-07-21T07:40:44.282Z,44.70
2018-07-21T07:43:12.620Z,43.70
2018-07-21T07:45:40.992Z,43.60
2018-07-21T07:48:09.342Z,43.50
2018-07-21T07:50:37.688Z,42.80
2018-07-21T07:53:05.997Z,43.20
2018-07-21T07:55:34.568Z,43.50
2018-07-21T07:58:04.159Z,42.60
2018-07-21T08:00:32.788Z,41.60
2018-07-21T08:03:02.136Z,40.90
2018-07-21T08:05:30.746Z,41.40
2018-07-21T08:07:59.060Z,40.10
2018-07-21T08:10:27.908Z,39.80
2018-07-21T08:12:56.227Z,40.40
2018-07-21T08:15:24.585Z,40.70
2018-07-21T08:17:52.987Z,40.50
2018-07-21T08:20:21.346Z,40.50
2018-07-21T08:22:49.675Z,40.00
2018-07-21T08:25:18.027Z,39.40
2018-07-21T08:27:46.409Z,39.40
2018-07-21T08:30:14.776Z,37.80
2018-07-21T08:32:43.143Z,38.20
2018-07-21T08:35:11.554Z,37.60
2018-07-21T08:37:39.907Z,37.10
2018-07-21T08:40:09.018Z,37.20
2018-07-21T08:42:37.387Z,37.20
2018-07-21T08:45:06.307Z,37.10
2018-07-21T08:47:34.662Z,36.20
2018-07-21T08:50:03.018Z,36.00
2018-07-21T08:52:31.343Z,35.60
2018-07-21T08:54:59.724Z,34.20
2018-07-21T08:57:28.095Z,35.00
2018-07-21T08:59:56.470Z,33.90
2018-07-21T09:07:21.073Z,33.80
2018-07-21T09:09:49.375Z,33.40
2018-07-21T09:12:17.752Z,33.10
2018-07-21T09:14:49.205Z,32.90
2018-07-21T09:17:20.198Z,33.00
2018-07-21T09:19:49.612Z,32.80
2018-07-21T09:22:17.998Z,32.00
2018-07-21T09:24:46.637Z,32.50
2018-07-21T09:27:15.285Z,32.90
2018-07-21T09:29:43.780Z,32.50
2018-07-21T09:32:12.616Z,31.20
2018-07-21T09:34:41.060Z,31.00
2018-07-21T09:37:09.680Z,30.70
2018-07-21T09:39:38.051Z,31.20
2018-07-21T09:42:06.572Z,31.20
2018-07-21T09:44:34.928Z,31.00
2018-07-21T09:47:03.593Z,30.60
2018-07-21T09:49:31.940Z,30.30
2018-07-21T09:52:00.349Z,31.00
2018-07-21T09:54:28.690Z,31.20
2018-07-21T09:56:57.175Z,31.20
2018-07-21T09:59:25.611Z,30.70
2018-07-21T10:01:53.968Z,30.50
2018-07-21T10:04:29.085Z,30.00
2018-07-21T10:06:57.492Z,29.90
2018-07-21T10:09:25.857Z,30.70
2018-07-21T10:11:54.307Z,30.10
2018-07-21T10:14:22.680Z,29.90
2018-07-21T10:16:51.061Z,29.70
2018-07-21T10:19:19.426Z,29.50
2018-07-21T10:21:47.847Z,29.60
2018-07-21T10:25:22.438Z,29.80
2018-07-21T10:27:56.133Z,29.20
2018-07-21T10:30:24.454Z,28.60
2018-07-21T10:32:52.786Z,28.70
2018-07-21T10:35:21.201Z,28.30
2018-07-21T10:37:49.606Z,28.60
2018-07-21T10:40:18.010Z,28.50
2018-07-21T10:42:46.393Z,27.80
2018-07-21T10:45:14.740Z,28.30
2018-07-21T10:47:43.212Z,28.40
2018-07-21T10:50:11.640Z,28.10
2018-07-21T10:52:40.030Z,28.60
2018-07-21T10:55:08.416Z,28.60
2018-07-21T10:57:36.762Z,28.40
2018-07-21T11:00:05.695Z,28.20
2018-07-21T11:02:34.091Z,28.00
2018-07-21T11:05:02.484Z,28.30
2018-07-21T11:07:30.820Z,28.90
2018-07-21T11:09:59.158Z,29.00
2018-07-21T11:12:27.536Z,28.60
2018-07-21T11:14:55.892Z,28.90
2018-07-21T11:17:24.272Z,29.50
2018-07-21T11:19:52.623Z,29.90
2018-07-21T11:22:21.033Z,30.40
2018-07-21T11:24:49.396Z,30.10
2018-07-21T11:27:17.754Z,29.90
2018-07-21T11:29:46.085Z,29.70
2018-07-21T11:32:14.428Z,29.80
2018-07-21T11:34:42.810Z,29.60
2018-07-21T11:37:11.351Z,29.60
2018-07-21T11:39:39.678Z,29.90
2018-07-21T11:42:08.051Z,29.70
2018-07-21T11:44:36.456Z,29.30
2018-07-21T11:47:04.844Z,28.80
2018-07-21T11:49:33.204Z,28.50
2018-07-21T11:52:01.573Z,28.90
2018-07-21T11:54:29.974Z,27.90
2018-07-21T11:57:01.003Z,27.70
2018-07-21T11:59:29.984Z,28.00
2018-07-21T12:01:59.006Z,28.30
2018-07-21T12:04:28.048Z,28.30
2018-07-21T12:06:56.401Z,27.90
2018-07-21T12:09:25.054Z,28.50
2018-07-21T12:11:53.594Z,29.10
2018-07-21T12:14:24.125Z,29.00
2018-07-21T12:16:52.573Z,28.40
2018-07-21T12:19:21.057Z,28.00
2018-07-21T12:21:49.518Z,27.50
2018-07-21T12:24:18.127Z,27.30
2018-07-21T12:26:46.564Z,26.80
2018-07-21T12:29:15.005Z,26.70
2018-07-21T12:31:43.343Z,26.60
2018-07-21T12:34:11.793Z,26.10
2018-07-21T12:36:40.169Z,26.40
2018-07-21T12:39:09.564Z,25.90
2018-07-21T12:41:38.135Z,25.80
2018-07-21T12:44:06.536Z,25.90
2018-07-21T12:46:34.883Z,25.80
2018-07-21T12:49:03.515Z,25.90
2018-07-21T12:51:32.167Z,26.20
2018-07-21T12:54:00.536Z,26.00
2018-07-21T12:56:28.984Z,26.10
2018-07-21T12:58:57.397Z,26.10
2018-07-21T13:01:25.746Z,26.60
2018-07-21T13:03:54.149Z,26.50
2018-07-21T13:06:22.512Z,25.80
2018-07-21T13:08:50.896Z,25.40
2018-07-21T13:11:19.214Z,25.40
2018-07-21T13:13:47.631Z,25.80
2018-07-21T13:16:15.968Z,26.10
2018-07-21T13:18:44.383Z,25.80
2018-07-21T13:21:12.745Z,25.90
2018-07-21T13:23:41.131Z,25.70
2018-07-21T13:26:09.514Z,25.20
2018-07-21T13:28:37.881Z,24.80
2018-07-21T13:31:06.332Z,25.10
2018-07-21T13:33:34.749Z,25.20
2018-07-21T13:36:03.098Z,24.90
2018-07-21T13:38:31.484Z,24.70
2018-07-21T13:40:59.859Z,24.80
2018-07-21T13:43:28.293Z,25.30
2018-07-21T13:45:56.615Z,25.40
2018-07-21T13:48:24.974Z,25.40
2018-07-21T13:50:53.295Z,25.30
2018-07-21T13:53:21.664Z,25.20
2018-07-21T13:55:50.043Z,25.00
2018-07-21T13:58:18.403Z,25.50
2018-07-21T14:00:46.747Z,25.60
2018-07-21T14:03:15.103Z,25.50
2018-07-21T14:05:43.508Z,25.60
2018-07-21T14:10:40.055Z,25.70
2018-07-21T14:13:08.540Z,25.70
2018-07-21T14:18:06.015Z,25.70
2018-07-21T14:20:34.358Z,25.70
2018-07-21T14:23:02.749Z,25.80
2018-07-21T14:25:31.428Z,26.40
2018-07-21T14:27:59.873Z,26.70
2018-07-21T14:30:28.285Z,26.80
2018-07-21T14:32:56.618Z,26.90
2018-07-21T14:35:25.085Z,26.90
2018-07-21T14:37:53.477Z,27.40
2018-07-21T14:40:21.866Z,27.40
2018-07-21T14:42:50.317Z,27.20
2018-07-21T14:47:46.784Z,27.30
2018-07-21T14:50:15.208Z,27.50
2018-07-21T14:52:43.545Z,27.10
2018-07-21T14:55:11.956Z,26.80
2018-07-21T14:57:40.320Z,27.00
2018-07-21T15:00:08.688Z,26.80
2018-07-21T15:02:37.051Z,27.00
2018-07-21T15:05:05.409Z,27.40
2018-07-21T15:07:33.757Z,27.60
2018-07-21T15:10:02.103Z,27.50
2018-07-21T15:12:30.425Z,27.40
2018-07-21T15:14:58.798Z,27.50
2018-07-21T15:17:27.209Z,27.40
2018-07-21T15:19:55.575Z,27.40
2018-07-21T15:22:23.920Z,27.40
2018-07-21T15:24:52.292Z,27.50
2018-07-21T15:27:20.696Z,27.30
2018-07-21T15:29:49.044Z,27.70
2018-07-21T15:32:17.392Z,27.60
2018-07-21T15:34:45.804Z,27.70
2018-07-21T15:37:14.135Z,27.60
2018-07-21T15:39:42.565Z,27.70
2018-07-21T15:42:10.878Z,27.70
2018-07-21T15:44:39.262Z,27.90
2018-07-21T15:47:07.688Z,27.60
2018-07-21T15:49:36.027Z,27.60
2018-07-21T15:52:04.373Z,27.60
2018-07-21T15:54:32.748Z,27.80
2018-07-21T15:57:01.095Z,28.00
2018-07-21T15:59:29.431Z,27.90
2018-07-21T16:01:57.778Z,27.90
2018-07-21T16:04:26.125Z,27.80
2018-07-21T16:06:54.495Z,28.10
2018-07-21T16:09:22.814Z,28.10
2018-07-21T16:11:51.153Z,28.50
2018-07-21T16:14:19.500Z,28.70
2018-07-21T16:16:47.913Z,29.00
2018-07-21T16:19:16.294Z,29.20
2018-07-21T16:21:44.653Z,29.40
2018-07-21T16:24:13.101Z,29.50
2018-07-21T16:26:41.471Z,29.60
2018-07-21T16:29:09.964Z,29.80
2018-07-21T16:31:38.391Z,30.20
2018-07-21T16:34:06.833Z,30.70
2018-07-21T16:36:35.248Z,30.90
2018-07-21T16:39:04.029Z,31.40
2018-07-21T16:41:32.427Z,31.60
2018-07-21T16:44:00.801Z,31.80
2018-07-21T16:46:29.158Z,32.00
2018-07-21T16:48:57.508Z,32.20
2018-07-21T16:51:25.945Z,32.50
2018-07-21T16:53:54.288Z,32.70
2018-07-21T16:56:22.640Z,32.80
2018-07-21T16:58:51.017Z,33.00
2018-07-21T17:03:47.419Z,33.30
2018-07-21T17:06:15.945Z,33.50
2018-07-21T17:08:44.358Z,33.70
2018-07-21T17:11:12.712Z,33.70
2018-07-21T17:13:41.055Z,33.80
2018-07-21T17:16:09.428Z,34.00
2018-07-21T17:18:37.843Z,34.10
2018-07-21T17:21:06.269Z,34.10
2018-07-21T17:23:34.627Z,34.70
2018-07-21T17:26:03.044Z,34.50
2018-07-21T17:28:31.427Z,34.80
2018-07-21T17:30:59.761Z,34.90
2018-07-21T17:33:28.122Z,35.00
2018-07-21T17:35:56.503Z,35.00
2018-07-21T17:38:24.840Z,34.90
2018-07-21T17:40:53.263Z,35.00
2018-07-21T17:43:21.583Z,35.00
2018-07-21T17:45:49.981Z,34.90
2018-07-21T17:48:18.343Z,35.00
2018-07-21T17:50:46.708Z,35.60
2018-07-21T17:53:15.195Z,35.70
2018-07-21T17:55:43.657Z,35.90
2018-07-21T17:58:12.056Z,35.90
2018-07-21T18:00:40.420Z,36.20
2018-07-21T18:03:08.755Z,36.50
2018-07-21T18:05:37.120Z,36.70
2018-07-21T18:08:05.471Z,36.60
2018-07-21T18:10:33.800Z,37.20
2018-07-21T18:13:02.222Z,37.40
2018-07-21T18:15:30.601Z,37.50
2018-07-21T18:17:58.995Z,37.40
2018-07-21T18:20:27.320Z,37.60
2018-07-21T18:22:55.764Z,37.90
2018-07-21T18:25:24.195Z,37.90
2018-07-21T18:27:52.579Z,38.30
2018-07-21T18:30:20.922Z,38.40
2018-07-21T18:32:49.354Z,38.40
2018-07-21T18:35:17.732Z,38.70
2018-07-21T18:37:46.111Z,39.10
2018-07-21T18:40:22.020Z,39.30
2018-07-21T18:42:50.414Z,39.40
2018-07-21T18:45:18.830Z,39.80
2018-07-21T18:47:47.142Z,40.30
2018-07-21T18:50:15.498Z,40.20
2018-07-21T18:52:43.870Z,40.50
2018-07-21T18:55:12.220Z,40.70
2018-07-21T18:57:40.651Z,41.40
2018-07-21T19:00:09.079Z,41.60
2018-07-21T19:02:37.574Z,41.70
2018-07-21T19:05:06.271Z,41.90
2018-07-21T19:07:34.656Z,42.30
2018-07-21T19:10:03.025Z,42.50
2018-07-21T19:12:36.881Z,43.10
2018-07-21T19:15:05.311Z,42.90
2018-07-21T19:17:33.729Z,43.10
2018-07-21T19:20:07.511Z,43.50
2018-07-21T19:22:47.612Z,43.90
2018-07-21T19:25:21.235Z,44.20
2018-07-21T19:27:49.620Z,44.40
2018-07-21T19:30:17.946Z,44.50
2018-07-21T19:32:51.746Z,44.80
2018-07-21T19:35:20.097Z,45.40
2018-07-21T19:37:49.527Z,45.40
2018-07-21T19:40:19.387Z,45.60
2018-07-21T19:42:48.277Z,45.70
2018-07-21T19:45:16.881Z,45.80
2018-07-21T19:47:45.437Z,45.30
2018-07-21T19:50:13.772Z,45.00
2018-07-21T19:52:42.405Z,46.00
2018-07-21T19:55:11.211Z,46.40
2018-07-21T19:57:39.608Z,46.00
2018-07-21T20:00:07.985Z,45.90
2018-07-21T20:02:36.422Z,45.70
2018-07-21T20:05:04.814Z,45.60
2018-07-21T20:07:33.206Z,45.60
2018-07-21T20:10:01.632Z,45.80
2018-07-21T20:12:30.025Z,46.10
2018-07-21T20:14:58.480Z,46.40
2018-07-21T20:17:26.912Z,46.40
2018-07-21T20:22:23.496Z,47.20
2018-07-21T20:24:51.884Z,47.20
2018-07-21T20:27:20.207Z,47.10
2018-07-21T20:29:48.633Z,47.30
2018-07-21T20:32:17.044Z,47.40
2018-07-21T20:34:45.508Z,47.80
2018-07-21T20:37:13.838Z,47.90
2018-07-21T20:39:42.280Z,47.90
2018-07-21T20:42:10.601Z,48.30
2018-07-21T20:44:38.970Z,48.50
2018-07-21T20:47:07.367Z,48.70
2018-07-21T20:49:35.838Z,49.10
2018-07-21T20:52:04.254Z,49.40
2018-07-21T20:54:32.637Z,49.40
2018-07-21T20:57:00.987Z,49.50
2018-07-21T20:59:29.348Z,49.50
2018-07-21T21:01:57.728Z,49.60
2018-07-21T21:04:26.113Z,49.50
2018-07-21T21:06:54.473Z,49.60
2018-07-21T21:09:22.879Z,49.70
2018-07-21T21:11:51.243Z,49.80
2018-07-21T21:14:19.600Z,49.70
2018-07-21T21:16:47.994Z,49.30
2018-07-21T21:19:16.360Z,48.90
2018-07-21T21:21:44.795Z,49.40
2018-07-21T21:24:13.176Z,49.50
2018-07-21T21:26:41.528Z,50.10
2018-07-21T21:29:09.908Z,50.20
2018-07-21T21:31:38.383Z,49.80
2018-07-21T21:34:06.893Z,49.70
2018-07-21T21:36:35.282Z,49.10
2018-07-21T21:39:06.095Z,48.90
2018-07-21T21:41:34.462Z,48.20
2018-07-21T21:44:03.040Z,48.00
2018-07-21T21:46:31.410Z,47.80
2018-07-21T21:48:59.785Z,47.80
2018-07-21T21:51:28.161Z,47.90
2018-07-21T21:53:56.552Z,48.30
2018-07-21T21:56:24.892Z,49.20
2018-07-21T21:58:53.535Z,49.00
2018-07-21T22:01:21.847Z,48.70
2018-07-21T22:03:54.374Z,48.20
2018-07-21T22:06:22.700Z,48.00
2018-07-21T22:08:51.066Z,48.10
2018-07-21T22:11:19.477Z,47.80
2018-07-21T22:16:16.009Z,47.90
2018-07-21T22:18:44.392Z,48.00
2018-07-21T22:21:12.903Z,48.10
2018-07-21T22:23:41.228Z,48.30
2018-07-21T22:26:09.593Z,48.80
2018-07-21T22:28:37.915Z,48.80
2018-07-21T22:31:06.424Z,49.00
2018-07-21T22:33:34.790Z,48.40
2018-07-21T22:36:03.230Z,48.50
2018-07-21T22:38:31.589Z,48.10
2018-07-21T22:40:59.971Z,48.00
2018-07-21T22:43:28.492Z,47.60
2018-07-21T22:45:56.810Z,48.00
2018-07-21T22:48:25.206Z,48.90
2018-07-21T22:50:53.548Z,48.20
2018-07-21T22:53:21.960Z,48.10
2018-07-21T22:55:50.415Z,48.40
2018-07-21T22:58:18.742Z,48.60
2018-07-21T23:00:47.158Z,48.30
2018-07-21T23:03:15.490Z,48.90
2018-07-21T23:05:43.830Z,47.30
2018-07-21T23:08:12.215Z,48.00
2018-07-21T23:10:40.600Z,47.90
2018-07-21T23:13:08.934Z,47.40
2018-07-21T23:15:37.391Z,47.50
2018-07-21T23:18:05.805Z,47.00
2018-07-21T23:20:34.247Z,47.60
2018-07-21T23:23:02.619Z,48.00
2018-07-21T23:25:31.081Z,47.80
2018-07-21T23:27:59.453Z,47.60
2018-07-21T23:30:27.820Z,48.10
2018-07-21T23:32:56.163Z,48.00
2018-07-21T23:35:24.583Z,48.50
2018-07-21T23:37:52.941Z,48.00
2018-07-21T23:40:21.417Z,48.40
2018-07-21T23:42:49.738Z,47.70
2018-07-21T23:45:18.079Z,48.20
2018-07-21T23:47:46.395Z,48.00
2018-07-21T23:50:14.822Z,49.00
2018-07-21T23:52:43.187Z,47.90
2018-07-21T23:55:11.629Z,48.20
2018-07-21T23:57:40.078Z,48.30
